createdAt,value
2023-08-07T00:00:30.548Z,100.00
2023-08-07T00:03:32.618Z,100.00
2023-08-07T00:06:34.630Z,100.00
2023-08-07T00:09:36.491Z,100.00
2023-08-07T00:12:38.513Z,98.56
2023-08-07T00:15:40.818Z,100.00
2023-08-07T00:18:42.782Z,96.77
2023-08-07T00:21:44.783Z,97.70
2023-08-07T00:24:46.632Z,91.95
2023-08-07T00:27:48.463Z,91.08
2023-08-07T00:30:50.604Z,92.79
2023-08-07T00:33:55.154Z,94.93
2023-08-07T00:36:57.168Z,94.98
2023-08-07T00:39:59.248Z,94.02
2023-08-07T00:43:01.091Z,94.31
2023-08-07T00:46:03.636Z,92.20
2023-08-07T00:49:06.390Z,93.46
2023-08-07T00:52:09.125Z,96.29
2023-08-07T00:55:11.197Z,97.18
2023-08-07T00:58:13.285Z,94.05
2023-08-07T01:01:15.793Z,93.33
2023-08-07T01:04:17.779Z,93.20
2023-08-07T01:07:19.812Z,92.84
2023-08-07T01:10:51.086Z,94.90
2023-08-07T01:14:06.843Z,95.50
2023-08-07T01:17:27.860Z,95.89
2023-08-07T01:20:29.940Z,97.95
2023-08-07T01:23:31.935Z,97.65
2023-08-07T01:26:36.235Z,98.34
2023-08-07T01:29:45.162Z,98.51
2023-08-07T01:33:23.873Z,98.95
2023-08-07T01:36:29.763Z,97.38
2023-08-07T01:39:32.641Z,93.39
2023-08-07T01:42:36.567Z,96.20
2023-08-07T01:45:38.577Z,93.58
2023-08-07T01:48:40.519Z,94.92
2023-08-07T01:51:42.504Z,94.78
2023-08-07T01:54:44.530Z,95.38
2023-08-07T01:57:46.687Z,94.39
2023-08-07T02:00:48.579Z,92.97
2023-08-07T02:03:50.490Z,93.37
2023-08-07T02:06:52.579Z,93.46
2023-08-07T02:09:56.520Z,93.23
2023-08-07T02:13:00.525Z,94.03
2023-08-07T02:16:03.387Z,93.82
2023-08-07T02:19:05.298Z,93.78
2023-08-07T02:22:07.221Z,93.72
2023-08-07T02:25:09.616Z,93.70
2023-08-07T02:28:13.860Z,94.02
2023-08-07T02:31:15.839Z,93.83
2023-08-07T02:34:17.725Z,94.47
2023-08-07T02:37:19.911Z,94.69
2023-08-07T02:40:21.809Z,94.43
2023-08-07T02:43:23.782Z,94.93
2023-08-07T02:46:25.740Z,95.30
2023-08-07T02:49:27.664Z,95.82
2023-08-07T02:52:29.588Z,94.44
2023-08-07T02:55:31.413Z,94.36
2023-08-07T02:58:33.569Z,93.74
2023-08-07T03:01:35.576Z,94.22
2023-08-07T03:04:37.582Z,95.80
2023-08-07T03:07:39.515Z,95.69
2023-08-07T03:10:41.496Z,95.74
2023-08-07T03:13:45.279Z,94.34
2023-08-07T03:16:47.371Z,94.68
2023-08-07T03:19:50.481Z,96.61
2023-08-07T03:22:52.780Z,97.02
2023-08-07T03:26:24.161Z,97.96
2023-08-07T03:29:26.583Z,98.48
2023-08-07T03:32:28.582Z,96.84
2023-08-07T03:35:31.054Z,96.14
2023-08-07T03:38:32.963Z,95.96
2023-08-07T03:41:35.458Z,95.34
2023-08-07T03:44:37.433Z,94.54
2023-08-07T03:47:39.411Z,94.22
2023-08-07T03:50:41.432Z,95.07
2023-08-07T03:53:44.381Z,96.67
2023-08-07T03:56:47.994Z,94.93
2023-08-07T03:59:49.912Z,96.45
2023-08-07T04:02:51.781Z,96.59
2023-08-07T04:05:55.112Z,97.62
2023-08-07T04:08:58.051Z,97.74
2023-08-07T04:12:00.019Z,95.70
2023-08-07T04:15:01.953Z,95.92
2023-08-07T04:18:03.957Z,93.23
2023-08-07T04:21:05.825Z,94.24
2023-08-07T04:24:11.879Z,92.54
2023-08-07T04:27:13.825Z,93.08
2023-08-07T04:30:15.802Z,93.42
2023-08-07T04:33:17.708Z,93.20
2023-08-07T04:36:19.655Z,93.24
2023-08-07T04:39:22.075Z,93.91
2023-08-07T04:42:23.971Z,92.84
2023-08-07T04:45:26.002Z,92.28
2023-08-07T04:48:27.999Z,93.38
2023-08-07T04:51:31.700Z,89.63
2023-08-07T04:54:33.638Z,90.07
2023-08-07T04:57:35.523Z,87.23
2023-08-07T05:00:37.884Z,89.16
2023-08-07T05:03:39.912Z,89.49
2023-08-07T05:06:42.112Z,89.60
2023-08-07T05:09:44.027Z,90.83
2023-08-07T05:12:45.906Z,89.36
2023-08-07T05:15:50.725Z,89.39
2023-08-07T05:18:52.640Z,88.68
2023-08-07T05:21:54.801Z,88.40
2023-08-07T05:24:56.873Z,88.55
2023-08-07T05:27:58.742Z,88.08
2023-08-07T05:31:00.821Z,89.28
2023-08-07T05:34:03.001Z,88.42
2023-08-07T05:37:05.514Z,87.55
2023-08-07T05:40:08.247Z,86.42
2023-08-07T05:43:10.330Z,84.73
2023-08-07T05:46:12.274Z,81.39
2023-08-07T05:49:14.123Z,81.17
2023-08-07T05:52:16.025Z,80.53
2023-08-07T05:55:17.975Z,82.23
2023-08-07T05:58:20.192Z,78.88
2023-08-07T06:01:22.220Z,78.62
2023-08-07T06:04:24.429Z,79.28
2023-08-07T06:07:26.981Z,77.83
2023-08-07T06:10:28.910Z,77.74
2023-08-07T06:13:36.471Z,78.33
2023-08-07T06:16:38.682Z,78.52
2023-08-07T06:19:40.529Z,77.99
2023-08-07T06:22:42.465Z,77.95
2023-08-07T06:25:44.414Z,78.51
2023-08-07T06:28:46.522Z,78.21
2023-08-07T06:31:48.738Z,78.38
2023-08-07T06:34:50.696Z,77.74
2023-08-07T06:37:52.549Z,75.16
2023-08-07T06:40:54.506Z,75.84
2023-08-07T06:43:56.558Z,74.50
2023-08-07T06:46:58.436Z,73.95
2023-08-07T06:50:00.293Z,73.54
2023-08-07T06:53:02.167Z,72.01
2023-08-07T06:56:04.230Z,70.76
2023-08-07T06:59:06.170Z,71.55
2023-08-07T07:02:08.180Z,72.25
2023-08-07T07:05:10.150Z,73.31
2023-08-07T07:08:12.060Z,70.60
2023-08-07T07:11:14.010Z,69.80
2023-08-07T07:14:15.933Z,71.03
2023-08-07T07:17:17.784Z,71.27
2023-08-07T07:20:20.018Z,70.26
2023-08-07T07:23:22.095Z,69.47
2023-08-07T07:26:24.014Z,71.31
2023-08-07T07:29:25.957Z,68.64
2023-08-07T07:32:27.954Z,70.39
2023-08-07T07:35:29.852Z,68.58
2023-08-07T07:38:31.725Z,70.01
2023-08-07T07:41:33.636Z,69.90
2023-08-07T07:44:39.849Z,68.67
2023-08-07T07:47:42.115Z,71.22
2023-08-07T07:50:44.123Z,66.76
2023-08-07T07:53:46.877Z,67.79
2023-08-07T07:56:49.913Z,68.34
2023-08-07T07:59:53.273Z,67.61
2023-08-07T08:02:55.664Z,66.65
2023-08-07T08:05:57.732Z,67.56
2023-08-07T08:09:00.628Z,67.90
2023-08-07T08:12:02.514Z,66.59
2023-08-07T08:15:05.293Z,65.52
2023-08-07T08:18:07.511Z,66.21
2023-08-07T08:21:09.773Z,67.18
2023-08-07T08:24:11.727Z,63.04
2023-08-07T08:27:13.701Z,66.32
2023-08-07T08:30:15.571Z,63.56
2023-08-07T08:33:18.762Z,66.33
2023-08-07T08:36:20.735Z,65.05
2023-08-07T08:39:22.952Z,65.01
2023-08-07T08:42:25.290Z,65.32
2023-08-07T08:45:28.455Z,64.63
2023-08-07T08:48:35.496Z,65.18
2023-08-07T08:51:38.431Z,63.53
2023-08-07T08:54:41.577Z,63.34
2023-08-07T08:57:43.521Z,63.26
2023-08-07T09:00:46.594Z,64.87
2023-08-07T09:03:48.855Z,64.95
2023-08-07T09:06:51.169Z,64.71
2023-08-07T09:09:54.400Z,63.15
2023-08-07T09:13:06.826Z,64.44
2023-08-07T09:16:10.034Z,66.85
2023-08-07T09:19:11.928Z,64.94
2023-08-07T09:22:14.010Z,65.06
2023-08-07T09:25:16.149Z,68.50
2023-08-07T09:28:18.154Z,69.18
2023-08-07T09:31:21.714Z,70.79
2023-08-07T09:34:25.019Z,72.52
2023-08-07T09:37:26.957Z,74.40
2023-08-07T09:40:30.521Z,74.17
2023-08-07T09:43:38.489Z,73.94
2023-08-07T09:46:45.040Z,78.99
2023-08-07T09:49:47.235Z,78.24
2023-08-07T09:52:52.625Z,80.20
2023-08-07T09:55:55.784Z,77.35
2023-08-07T09:58:59.859Z,71.37
2023-08-07T10:02:03.446Z,70.12
2023-08-07T10:05:10.126Z,71.63
2023-08-07T10:08:13.104Z,67.05
2023-08-07T10:11:18.322Z,69.16
2023-08-07T10:14:20.360Z,66.79
2023-08-07T10:17:26.060Z,63.91
2023-08-07T10:20:29.800Z,62.54
2023-08-07T10:23:33.453Z,59.76
2023-08-07T10:26:37.941Z,59.41
2023-08-07T10:29:40.818Z,58.35
2023-08-07T10:32:44.792Z,61.77
2023-08-07T10:35:49.377Z,62.47
2023-08-07T10:38:54.395Z,60.14
2023-08-07T10:41:56.647Z,55.67
2023-08-07T10:45:02.676Z,60.13
2023-08-07T10:48:14.150Z,57.98
2023-08-07T10:51:18.543Z,60.38
2023-08-07T10:54:20.502Z,56.12
2023-08-07T10:57:24.225Z,59.24
2023-08-07T11:00:29.279Z,57.62
2023-08-07T11:03:36.489Z,57.42
2023-08-07T11:06:39.836Z,57.03
2023-08-07T11:09:43.108Z,57.14
2023-08-07T11:12:45.069Z,60.25
2023-08-07T11:15:48.247Z,57.22
2023-08-07T11:18:50.998Z,59.19
2023-08-07T11:21:55.407Z,57.10
2023-08-07T11:24:57.410Z,57.38
2023-08-07T11:28:00.380Z,57.86
2023-08-07T11:31:02.773Z,58.09
2023-08-07T11:34:05.013Z,58.92
2023-08-07T11:37:06.947Z,59.27
2023-08-07T11:40:09.709Z,59.70
2023-08-07T11:43:11.554Z,61.44
2023-08-07T11:46:15.743Z,61.54
2023-08-07T11:49:17.758Z,60.52
2023-08-07T11:52:19.833Z,60.91
2023-08-07T11:55:21.878Z,61.22
2023-08-07T11:58:26.530Z,60.70
2023-08-07T12:01:29.047Z,61.31
2023-08-07T12:04:36.382Z,61.34
2023-08-07T12:07:39.083Z,61.32
2023-08-07T12:10:42.143Z,60.96
2023-08-07T12:13:46.330Z,61.44
2023-08-07T12:16:48.850Z,60.27
2023-08-07T12:19:51.621Z,62.13
2023-08-07T12:22:53.568Z,61.89
2023-08-07T12:25:56.034Z,61.08
2023-08-07T12:28:57.896Z,61.94
2023-08-07T12:32:02.232Z,62.42
2023-08-07T12:38:10.584Z,61.98
2023-08-07T12:44:17.889Z,59.63
2023-08-07T12:47:19.842Z,59.24
2023-08-07T12:50:21.810Z,61.39
2023-08-07T12:53:23.915Z,59.03
2023-08-07T12:56:25.879Z,61.02
2023-08-07T12:59:27.791Z,62.42
2023-08-07T13:02:29.784Z,61.79
2023-08-07T13:05:32.492Z,62.13
2023-08-07T13:08:35.954Z,64.48
2023-08-07T13:11:37.914Z,64.11
2023-08-07T13:14:39.797Z,62.85
2023-08-07T13:17:42.819Z,62.82
2023-08-07T13:20:44.833Z,62.49
2023-08-07T13:23:46.765Z,61.47
2023-08-07T13:26:49.353Z,63.58
2023-08-07T13:29:51.344Z,62.52
2023-08-07T13:32:53.320Z,61.65
2023-08-07T13:35:55.380Z,61.23
2023-08-07T13:38:57.378Z,59.13
2023-08-07T13:42:00.986Z,60.03
2023-08-07T13:45:03.179Z,59.65
2023-08-07T13:48:07.620Z,59.67
2023-08-07T13:51:10.105Z,61.34
2023-08-07T13:54:12.094Z,60.88
2023-08-07T13:57:13.959Z,60.07
2023-08-07T14:00:16.033Z,62.27
2023-08-07T14:03:18.128Z,60.76
2023-08-07T14:06:20.290Z,61.43
2023-08-07T14:09:23.109Z,59.30
2023-08-07T14:12:25.177Z,59.96
2023-08-07T14:15:27.091Z,61.14
2023-08-07T14:18:29.135Z,62.63
2023-08-07T14:21:31.121Z,60.80
2023-08-07T14:24:33.013Z,62.86
2023-08-07T14:27:35.013Z,62.42
2023-08-07T14:30:37.207Z,61.43
2023-08-07T14:33:39.646Z,60.39
2023-08-07T14:36:41.994Z,62.00
2023-08-07T14:39:43.874Z,61.61
2023-08-07T14:42:46.387Z,62.35
2023-08-07T14:45:48.403Z,61.27
2023-08-07T14:48:50.676Z,62.83
2023-08-07T14:51:52.706Z,62.76
2023-08-07T14:54:58.531Z,63.80
2023-08-07T14:58:00.420Z,65.20
2023-08-07T15:01:02.313Z,65.44
2023-08-07T15:04:04.415Z,64.53
2023-08-07T15:07:06.667Z,60.67
2023-08-07T15:10:09.846Z,61.30
2023-08-07T15:13:11.776Z,60.61
2023-08-07T15:16:13.840Z,59.68
2023-08-07T15:19:15.862Z,60.93
2023-08-07T15:22:17.860Z,62.28
2023-08-07T15:25:19.759Z,63.65
2023-08-07T15:28:21.886Z,61.41
2023-08-07T15:31:24.267Z,60.81
2023-08-07T15:34:26.465Z,61.67
2023-08-07T15:37:28.498Z,63.29
2023-08-07T15:40:30.483Z,63.00
2023-08-07T15:43:32.393Z,64.48
2023-08-07T15:46:34.362Z,63.51
2023-08-07T15:49:36.329Z,63.60
2023-08-07T15:52:38.403Z,64.17
2023-08-07T15:55:40.376Z,65.18
2023-08-07T15:58:42.303Z,65.70
2023-08-07T16:01:44.271Z,66.81
2023-08-07T16:04:46.312Z,68.34
2023-08-07T16:07:50.441Z,68.05
2023-08-07T16:10:53.873Z,66.24
2023-08-07T16:13:55.779Z,66.67
2023-08-07T16:17:00.192Z,65.70
2023-08-07T16:20:02.274Z,65.59
2023-08-07T16:23:04.883Z,66.66
2023-08-07T16:26:07.216Z,66.80
2023-08-07T16:29:09.173Z,68.06
2023-08-07T16:32:11.041Z,66.03
2023-08-07T16:35:13.986Z,66.11
2023-08-07T16:38:15.958Z,67.55
2023-08-07T16:41:17.876Z,67.13
2023-08-07T16:44:19.848Z,68.41
2023-08-07T16:47:21.713Z,66.81
2023-08-07T16:50:26.483Z,66.90
2023-08-07T16:53:28.371Z,66.46
2023-08-07T16:56:30.275Z,66.92
2023-08-07T16:59:32.240Z,67.76
2023-08-07T17:02:34.325Z,69.24
2023-08-07T17:05:36.316Z,69.51
2023-08-07T17:08:38.491Z,71.06
2023-08-07T17:11:40.568Z,71.73
2023-08-07T17:14:42.477Z,73.31
2023-08-07T17:17:44.470Z,73.41
2023-08-07T17:20:46.391Z,72.97
2023-08-07T17:23:49.011Z,72.81
2023-08-07T17:26:51.025Z,72.76
2023-08-07T17:29:54.998Z,74.61
2023-08-07T17:32:58.172Z,74.22
2023-08-07T17:36:00.952Z,73.80
2023-08-07T17:39:02.926Z,74.84
2023-08-07T17:42:05.233Z,74.00
2023-08-07T17:45:07.815Z,74.30
2023-08-07T17:48:09.964Z,73.96
2023-08-07T17:51:14.659Z,74.69
2023-08-07T17:54:16.707Z,75.56
2023-08-07T17:57:18.751Z,75.31
2023-08-07T18:00:20.727Z,76.42
2023-08-07T18:03:22.713Z,76.02
2023-08-07T18:06:24.714Z,76.46
2023-08-07T18:09:27.473Z,76.56
2023-08-07T18:12:29.604Z,76.23
2023-08-07T18:15:31.507Z,77.21
2023-08-07T18:18:34.098Z,77.18
2023-08-07T18:21:36.020Z,77.16
2023-08-07T18:24:38.035Z,76.77
2023-08-07T18:27:40.056Z,76.92
2023-08-07T18:30:42.036Z,77.34
2023-08-07T18:33:43.883Z,77.86
2023-08-07T18:36:47.063Z,78.29
2023-08-07T18:39:48.974Z,78.24
2023-08-07T18:42:50.853Z,78.15
2023-08-07T18:45:52.856Z,78.63
2023-08-07T18:48:55.619Z,79.36
2023-08-07T18:51:57.561Z,78.52
2023-08-07T18:54:59.426Z,78.56
2023-08-07T18:58:02.880Z,78.89
2023-08-07T19:01:06.750Z,79.40
2023-08-07T19:04:08.726Z,79.15
2023-08-07T19:07:11.012Z,77.52
2023-08-07T19:10:13.011Z,78.35
2023-08-07T19:13:15.526Z,79.79
2023-08-07T19:16:17.393Z,78.53
2023-08-07T19:19:19.360Z,79.20
2023-08-07T19:22:21.203Z,79.84
2023-08-07T19:25:23.114Z,80.71
2023-08-07T19:28:25.070Z,83.34
2023-08-07T19:31:27.023Z,83.40
2023-08-07T19:34:29.090Z,83.51
2023-08-07T19:37:31.534Z,84.26
2023-08-07T19:40:33.501Z,84.41
2023-08-07T19:43:35.381Z,83.96
2023-08-07T19:46:37.340Z,84.86
2023-08-07T19:49:39.252Z,83.68
2023-08-07T19:52:41.378Z,83.39
2023-08-07T19:55:43.298Z,80.50
2023-08-07T19:58:45.149Z,80.72
2023-08-07T20:01:47.015Z,80.78
2023-08-07T20:04:48.974Z,80.15
2023-08-07T20:07:50.974Z,80.01
2023-08-07T20:10:52.970Z,80.99
2023-08-07T20:13:54.901Z,80.54
2023-08-07T20:16:56.774Z,80.41
2023-08-07T20:19:58.762Z,81.19
2023-08-07T20:23:00.781Z,80.51
2023-08-07T20:26:02.781Z,81.11
2023-08-07T20:29:04.877Z,81.93
2023-08-07T20:32:07.077Z,82.27
2023-08-07T20:35:09.515Z,82.17
2023-08-07T20:38:11.486Z,82.54
2023-08-07T20:41:13.479Z,82.13
2023-08-07T20:44:15.333Z,82.79
2023-08-07T20:47:17.318Z,82.56
2023-08-07T20:50:19.320Z,82.12
2023-08-07T20:53:21.219Z,82.16
2023-08-07T20:56:23.200Z,82.09
2023-08-07T20:59:25.178Z,81.74
2023-08-07T21:02:27.329Z,81.79
2023-08-07T21:05:29.454Z,81.03
2023-08-07T21:08:31.607Z,81.23
2023-08-07T21:11:33.998Z,80.65
2023-08-07T21:14:36.082Z,80.64
2023-08-07T21:17:38.255Z,80.92
2023-08-07T21:20:40.501Z,80.69
2023-08-07T21:23:42.601Z,81.65
2023-08-07T21:26:44.786Z,81.14
2023-08-07T21:29:46.917Z,81.58
2023-08-07T21:32:49.186Z,82.21
2023-08-07T21:35:51.588Z,81.25
2023-08-07T21:38:54.134Z,81.32
2023-08-07T21:41:56.717Z,81.56
2023-08-07T21:44:59.096Z,81.98
2023-08-07T21:48:01.321Z,81.79
2023-08-07T21:51:03.538Z,82.37
2023-08-07T21:54:05.658Z,81.94
2023-08-07T21:57:08.081Z,82.54
2023-08-07T22:00:15.483Z,82.76
2023-08-07T22:03:17.877Z,82.03
2023-08-07T22:06:20.285Z,82.31
2023-08-07T22:09:22.456Z,82.13
2023-08-07T22:12:24.661Z,83.38
2023-08-07T22:15:26.935Z,83.09
2023-08-07T22:18:29.129Z,82.10
2023-08-07T22:21:31.307Z,82.56
2023-08-07T22:24:33.444Z,82.01
2023-08-07T22:27:35.420Z,82.40
2023-08-07T22:30:37.338Z,82.66
2023-08-07T22:33:39.311Z,82.13
2023-08-07T22:36:41.541Z,83.17
2023-08-07T22:39:43.459Z,83.05
2023-08-07T22:42:45.401Z,82.87
2023-08-07T22:45:50.828Z,82.25
2023-08-07T22:48:53.963Z,82.77
2023-08-07T22:51:56.080Z,82.53
2023-08-07T22:54:58.290Z,82.25
2023-08-07T22:58:00.269Z,82.76
2023-08-07T23:01:02.508Z,82.55
2023-08-07T23:04:04.704Z,82.55
2023-08-07T23:07:06.655Z,82.74
2023-08-07T23:10:08.909Z,82.49
2023-08-07T23:13:10.841Z,82.51
2023-08-07T23:16:12.754Z,81.85
2023-08-07T23:19:14.755Z,82.59
2023-08-07T23:22:16.678Z,82.77
2023-08-07T23:25:18.589Z,83.10
2023-08-07T23:28:20.427Z,83.96
2023-08-07T23:31:22.638Z,84.36
2023-08-07T23:34:24.729Z,85.50
2023-08-07T23:37:26.899Z,86.79
2023-08-07T23:40:28.839Z,87.11
2023-08-07T23:43:30.713Z,87.17
2023-08-07T23:46:32.698Z,87.24
2023-08-07T23:49:34.815Z,87.59
2023-08-07T23:52:38.183Z,87.70
2023-08-07T23:55:40.153Z,87.71
2023-08-07T23:58:42.317Z,88.06
